sensor_id;sensor_type;location;lat;lon;timestamp;P1;durP1;ratioP1;P2;durP2;ratioP2
10465;SDS011;5280;42.600;23.556;2022-09-09T00:00:53;4.93;;;4.23;;
10465;SDS011;5280;42.600;23.556;2022-09-09T00:03:26;5.20;;;4.70;;
10465;SDS011;5280;42.600;23.556;2022-09-09T00:05:59;4.90;;;4.50;;
10465;SDS011;5280;42.600;23.556;2022-09-09T00:08:36;5.30;;;4.43;;
10465;SDS011;5280;42.600;23.556;2022-09-09T00:11:16;4.77;;;4.47;;
10465;SDS011;5280;42.600;23.556;2022-09-09T00:13:51;5.10;;;4.67;;
10465;SDS011;5280;42.600;23.556;2022-09-09T00:16:21;5.43;;;4.53;;
10465;SDS011;5280;42.600;23.556;2022-09-09T00:18:53;5.10;;;4.47;;
10465;SDS011;5280;42.600;23.556;2022-09-09T00:21:25;4.60;;;4.20;;
10465;SDS011;5280;42.600;23.556;2022-09-09T00:24:08;7.33;;;4.73;;
10465;SDS011;5280;42.600;23.556;2022-09-09T00:26:42;5.93;;;4.87;;
10465;SDS011;5280;42.600;23.556;2022-09-09T00:29:14;6.40;;;4.30;;
10465;SDS011;5280;42.600;23.556;2022-09-09T00:31:51;4.70;;;4.30;;
10465;SDS011;5280;42.600;23.556;2022-09-09T00:34:28;4.57;;;4.20;;
10465;SDS011;5280;42.600;23.556;2022-09-09T00:36:56;4.20;;;3.73;;
10465;SDS011;5280;42.600;23.556;2022-09-09T00:39:25;5.63;;;4.67;;
10465;SDS011;5280;42.600;23.556;2022-09-09T00:42:00;5.13;;;4.10;;
10465;SDS011;5280;42.600;23.556;2022-09-09T00:44:37;4.57;;;4.27;;
10465;SDS011;5280;42.600;23.556;2022-09-09T00:47:09;6.00;;;4.70;;
10465;SDS011;5280;42.600;23.556;2022-09-09T00:49:47;6.93;;;4.53;;
10465;SDS011;5280;42.600;23.556;2022-09-09T00:52:29;5.20;;;4.70;;
10465;SDS011;5280;42.600;23.556;2022-09-09T00:55:05;4.80;;;4.40;;
10465;SDS011;5280;42.600;23.556;2022-09-09T00:57:37;5.03;;;4.50;;
10465;SDS011;5280;42.600;23.556;2022-09-09T01:00:22;4.97;;;4.50;;
10465;SDS011;5280;42.600;23.556;2022-09-09T01:02:53;5.43;;;4.70;;
10465;SDS011;5280;42.600;23.556;2022-09-09T01:05:34;4.60;;;4.20;;
10465;SDS011;5280;42.600;23.556;2022-09-09T01:08:05;5.00;;;4.60;;
10465;SDS011;5280;42.600;23.556;2022-09-09T01:10:45;4.47;;;4.10;;
10465;SDS011;5280;42.600;23.556;2022-09-09T01:13:18;4.37;;;3.97;;
10465;SDS011;5280;42.600;23.556;2022-09-09T01:15:50;4.33;;;4.03;;
10465;SDS011;5280;42.600;23.556;2022-09-09T01:18:20;4.97;;;4.50;;
10465;SDS011;5280;42.600;23.556;2022-09-09T01:20:53;4.67;;;4.27;;
10465;SDS011;5280;42.600;23.556;2022-09-09T01:23:35;7.37;;;4.70;;
10465;SDS011;5280;42.600;23.556;2022-09-09T01:29:00;5.03;;;4.37;;
10465;SDS011;5280;42.600;23.556;2022-09-09T01:31:28;4.40;;;4.00;;
10465;SDS011;5280;42.600;23.556;2022-09-09T01:33:58;4.83;;;4.20;;
10465;SDS011;5280;42.600;23.556;2022-09-09T01:36:27;4.93;;;4.43;;
10465;SDS011;5280;42.600;23.556;2022-09-09T01:39:01;4.40;;;4.10;;
10465;SDS011;5280;42.600;23.556;2022-09-09T01:41:29;5.40;;;4.90;;
10465;SDS011;5280;42.600;23.556;2022-09-09T01:43:56;5.97;;;4.73;;
10465;SDS011;5280;42.600;23.556;2022-09-09T01:46:23;5.70;;;4.33;;
10465;SDS011;5280;42.600;23.556;2022-09-09T01:48:51;4.90;;;4.50;;
10465;SDS011;5280;42.600;23.556;2022-09-09T01:51:19;4.47;;;3.97;;
10465;SDS011;5280;42.600;23.556;2022-09-09T01:53:46;7.00;;;4.37;;
10465;SDS011;5280;42.600;23.556;2022-09-09T01:56:17;4.03;;;3.83;;
10465;SDS011;5280;42.600;23.556;2022-09-09T01:59:00;4.53;;;3.60;;
10465;SDS011;5280;42.600;23.556;2022-09-09T02:01:36;4.97;;;4.57;;
10465;SDS011;5280;42.600;23.556;2022-09-09T02:04:18;7.33;;;4.90;;
10465;SDS011;5280;42.600;23.556;2022-09-09T02:06:55;5.43;;;4.90;;
10465;SDS011;5280;42.600;23.556;2022-09-09T02:09:24;4.73;;;4.43;;
10465;SDS011;5280;42.600;23.556;2022-09-09T02:11:55;5.27;;;4.30;;
10465;SDS011;5280;42.600;23.556;2022-09-09T02:14:30;5.53;;;5.07;;
10465;SDS011;5280;42.600;23.556;2022-09-09T02:17:01;5.30;;;4.80;;
10465;SDS011;5280;42.600;23.556;2022-09-09T02:19:34;5.50;;;5.00;;
10465;SDS011;5280;42.600;23.556;2022-09-09T02:22:05;5.73;;;4.80;;
10465;SDS011;5280;42.600;23.556;2022-09-09T02:24:34;6.87;;;5.13;;
10465;SDS011;5280;42.600;23.556;2022-09-09T02:27:03;5.33;;;4.87;;
10465;SDS011;5280;42.600;23.556;2022-09-09T02:29:35;6.17;;;4.40;;
10465;SDS011;5280;42.600;23.556;2022-09-09T02:32:08;5.23;;;4.73;;
10465;SDS011;5280;42.600;23.556;2022-09-09T02:34:42;6.03;;;4.60;;
10465;SDS011;5280;42.600;23.556;2022-09-09T02:37:11;4.83;;;4.37;;
10465;SDS011;5280;42.600;23.556;2022-09-09T02:39:41;4.93;;;4.10;;
10465;SDS011;5280;42.600;23.556;2022-09-09T02:42:08;5.17;;;4.10;;
10465;SDS011;5280;42.600;23.556;2022-09-09T02:44:36;4.97;;;4.30;;
10465;SDS011;5280;42.600;23.556;2022-09-09T02:49:56;4.57;;;4.10;;
10465;SDS011;5280;42.600;23.556;2022-09-09T02:52:32;4.80;;;3.80;;
10465;SDS011;5280;42.600;23.556;2022-09-09T02:55:04;5.57;;;3.97;;
10465;SDS011;5280;42.600;23.556;2022-09-09T02:57:37;4.27;;;3.87;;
10465;SDS011;5280;42.600;23.556;2022-09-09T03:00:08;4.63;;;4.13;;
10465;SDS011;5280;42.600;23.556;2022-09-09T03:02:36;5.30;;;4.30;;
10465;SDS011;5280;42.600;23.556;2022-09-09T03:05:04;5.80;;;4.47;;
10465;SDS011;5280;42.600;23.556;2022-09-09T03:07:31;4.43;;;4.03;;
10465;SDS011;5280;42.600;23.556;2022-09-09T03:09:58;5.90;;;4.10;;
10465;SDS011;5280;42.600;23.556;2022-09-09T03:12:25;4.40;;;4.00;;
10465;SDS011;5280;42.600;23.556;2022-09-09T03:14:52;6.27;;;4.43;;
10465;SDS011;5280;42.600;23.556;2022-09-09T03:17:20;4.87;;;4.37;;
10465;SDS011;5280;42.600;23.556;2022-09-09T03:19:47;4.57;;;4.17;;
10465;SDS011;5280;42.600;23.556;2022-09-09T03:22:14;5.47;;;4.13;;
10465;SDS011;5280;42.600;23.556;2022-09-09T03:24:41;4.90;;;4.50;;
10465;SDS011;5280;42.600;23.556;2022-09-09T03:27:08;6.10;;;4.30;;
10465;SDS011;5280;42.600;23.556;2022-09-09T03:29:35;6.07;;;4.20;;
10465;SDS011;5280;42.600;23.556;2022-09-09T03:32:02;5.87;;;4.10;;
10465;SDS011;5280;42.600;23.556;2022-09-09T03:34:30;7.90;;;4.30;;
10465;SDS011;5280;42.600;23.556;2022-09-09T03:36:57;4.33;;;3.97;;
10465;SDS011;5280;42.600;23.556;2022-09-09T03:39:24;5.27;;;4.20;;
10465;SDS011;5280;42.600;23.556;2022-09-09T03:41:51;4.80;;;4.30;;
10465;SDS011;5280;42.600;23.556;2022-09-09T03:44:18;9.43;;;4.77;;
10465;SDS011;5280;42.600;23.556;2022-09-09T03:46:47;5.63;;;3.93;;
10465;SDS011;5280;42.600;23.556;2022-09-09T03:49:14;5.23;;;4.53;;
10465;SDS011;5280;42.600;23.556;2022-09-09T03:51:43;5.20;;;4.70;;
10465;SDS011;5280;42.600;23.556;2022-09-09T03:54:10;4.80;;;4.40;;
10465;SDS011;5280;42.600;23.556;2022-09-09T03:56:36;4.93;;;4.30;;
10465;SDS011;5280;42.600;23.556;2022-09-09T03:59:04;5.60;;;4.50;;
10465;SDS011;5280;42.600;23.556;2022-09-09T04:01:31;6.27;;;5.67;;
10465;SDS011;5280;42.600;23.556;2022-09-09T04:03:58;6.87;;;6.27;;
10465;SDS011;5280;42.600;23.556;2022-09-09T04:06:27;5.77;;;5.37;;
10465;SDS011;5280;42.600;23.556;2022-09-09T04:08:56;6.27;;;5.13;;
10465;SDS011;5280;42.600;23.556;2022-09-09T04:11:23;8.13;;;5.80;;
10465;SDS011;5280;42.600;23.556;2022-09-09T04:13:50;8.00;;;5.77;;
10465;SDS011;5280;42.600;23.556;2022-09-09T04:16:17;6.13;;;5.60;;
10465;SDS011;5280;42.600;23.556;2022-09-09T04:18:43;7.13;;;5.80;;
10465;SDS011;5280;42.600;23.556;2022-09-09T04:21:10;8.73;;;5.87;;
10465;SDS011;5280;42.600;23.556;2022-09-09T04:23:38;6.13;;;5.53;;
10465;SDS011;5280;42.600;23.556;2022-09-09T04:26:06;6.07;;;5.60;;
10465;SDS011;5280;42.600;23.556;2022-09-09T04:28:34;8.07;;;5.77;;
10465;SDS011;5280;42.600;23.556;2022-09-09T04:31:06;6.87;;;6.13;;
10465;SDS011;5280;42.600;23.556;2022-09-09T04:33:34;6.70;;;6.10;;
10465;SDS011;5280;42.600;23.556;2022-09-09T04:36:02;6.40;;;5.60;;
10465;SDS011;5280;42.600;23.556;2022-09-09T04:38:29;5.93;;;5.43;;
10465;SDS011;5280;42.600;23.556;2022-09-09T04:40:55;6.20;;;5.67;;
10465;SDS011;5280;42.600;23.556;2022-09-09T04:43:24;5.63;;;5.13;;
10465;SDS011;5280;42.600;23.556;2022-09-09T04:45:56;7.13;;;5.77;;
10465;SDS011;5280;42.600;23.556;2022-09-09T04:48:23;6.13;;;5.63;;
10465;SDS011;5280;42.600;23.556;2022-09-09T04:50:54;9.13;;;7.93;;
10465;SDS011;5280;42.600;23.556;2022-09-09T04:53:22;9.63;;;6.00;;
10465;SDS011;5280;42.600;23.556;2022-09-09T04:55:49;8.27;;;5.67;;
10465;SDS011;5280;42.600;23.556;2022-09-09T04:58:15;7.77;;;5.00;;
10465;SDS011;5280;42.600;23.556;2022-09-09T05:00:44;6.77;;;5.60;;
10465;SDS011;5280;42.600;23.556;2022-09-09T05:03:11;5.67;;;5.20;;
10465;SDS011;5280;42.600;23.556;2022-09-09T05:05:38;5.70;;;4.97;;
10465;SDS011;5280;42.600;23.556;2022-09-09T05:08:05;5.27;;;4.87;;
10465;SDS011;5280;42.600;23.556;2022-09-09T05:10:36;4.93;;;4.53;;
10465;SDS011;5280;42.600;23.556;2022-09-09T05:13:03;5.63;;;5.07;;
10465;SDS011;5280;42.600;23.556;2022-09-09T05:15:31;7.97;;;5.43;;
10465;SDS011;5280;42.600;23.556;2022-09-09T05:18:00;7.17;;;4.60;;
10465;SDS011;5280;42.600;23.556;2022-09-09T05:20:28;4.80;;;4.40;;
10465;SDS011;5280;42.600;23.556;2022-09-09T05:22:55;6.47;;;4.50;;
10465;SDS011;5280;42.600;23.556;2022-09-09T05:25:22;5.80;;;5.20;;
10465;SDS011;5280;42.600;23.556;2022-09-09T05:27:51;4.87;;;4.37;;
10465;SDS011;5280;42.600;23.556;2022-09-09T05:30:18;4.50;;;4.20;;
10465;SDS011;5280;42.600;23.556;2022-09-09T05:32:46;5.27;;;4.77;;
10465;SDS011;5280;42.600;23.556;2022-09-09T05:35:15;6.60;;;4.50;;
10465;SDS011;5280;42.600;23.556;2022-09-09T05:37:44;7.77;;;5.03;;
10465;SDS011;5280;42.600;23.556;2022-09-09T05:40:11;5.23;;;4.73;;
10465;SDS011;5280;42.600;23.556;2022-09-09T05:42:38;5.23;;;4.70;;
10465;SDS011;5280;42.600;23.556;2022-09-09T05:45:05;5.73;;;4.87;;
10465;SDS011;5280;42.600;23.556;2022-09-09T05:47:34;5.77;;;5.23;;
10465;SDS011;5280;42.600;23.556;2022-09-09T05:50:02;5.13;;;4.10;;
10465;SDS011;5280;42.600;23.556;2022-09-09T05:52:31;5.30;;;4.80;;
10465;SDS011;5280;42.600;23.556;2022-09-09T05:55:00;4.90;;;4.50;;
10465;SDS011;5280;42.600;23.556;2022-09-09T05:57:29;5.63;;;4.33;;
10465;SDS011;5280;42.600;23.556;2022-09-09T05:59:56;6.13;;;4.67;;
10465;SDS011;5280;42.600;23.556;2022-09-09T06:02:23;5.33;;;4.43;;
10465;SDS011;5280;42.600;23.556;2022-09-09T06:04:50;7.90;;;4.50;;
10465;SDS011;5280;42.600;23.556;2022-09-09T06:07:16;4.90;;;4.40;;
10465;SDS011;5280;42.600;23.556;2022-09-09T06:09:45;8.50;;;4.60;;
10465;SDS011;5280;42.600;23.556;2022-09-09T06:12:12;5.43;;;4.27;;
10465;SDS011;5280;42.600;23.556;2022-09-09T06:14:39;5.43;;;4.10;;
10465;SDS011;5280;42.600;23.556;2022-09-09T06:17:06;4.83;;;4.27;;
10465;SDS011;5280;42.600;23.556;2022-09-09T06:19:33;5.70;;;4.33;;
10465;SDS011;5280;42.600;23.556;2022-09-09T06:22:00;6.10;;;4.87;;
10465;SDS011;5280;42.600;23.556;2022-09-09T06:24:27;7.13;;;4.80;;
10465;SDS011;5280;42.600;23.556;2022-09-09T06:26:56;9.97;;;5.07;;
10465;SDS011;5280;42.600;23.556;2022-09-09T06:29:23;9.97;;;5.20;;
10465;SDS011;5280;42.600;23.556;2022-09-09T06:31:50;6.50;;;4.80;;
10465;SDS011;5280;42.600;23.556;2022-09-09T06:34:17;5.57;;;5.17;;
10465;SDS011;5280;42.600;23.556;2022-09-09T06:36:44;5.33;;;4.83;;
10465;SDS011;5280;42.600;23.556;2022-09-09T06:39:11;6.30;;;4.93;;
10465;SDS011;5280;42.600;23.556;2022-09-09T06:41:38;14.97;;;5.67;;
10465;SDS011;5280;42.600;23.556;2022-09-09T06:44:07;8.30;;;4.80;;
10465;SDS011;5280;42.600;23.556;2022-09-09T06:46:36;31.50;;;6.30;;
10465;SDS011;5280;42.600;23.556;2022-09-09T06:49:03;6.70;;;5.13;;
10465;SDS011;5280;42.600;23.556;2022-09-09T06:51:30;11.47;;;4.90;;
10465;SDS011;5280;42.600;23.556;2022-09-09T06:53:59;5.27;;;4.77;;
10465;SDS011;5280;42.600;23.556;2022-09-09T06:56:27;9.57;;;4.50;;
10465;SDS011;5280;42.600;23.556;2022-09-09T06:58:56;4.87;;;4.47;;
10465;SDS011;5280;42.600;23.556;2022-09-09T07:01:28;5.50;;;4.33;;
10465;SDS011;5280;42.600;23.556;2022-09-09T07:03:57;4.57;;;4.20;;
10465;SDS011;5280;42.600;23.556;2022-09-09T07:06:25;4.87;;;4.40;;
10465;SDS011;5280;42.600;23.556;2022-09-09T07:08:54;4.47;;;4.07;;
10465;SDS011;5280;42.600;23.556;2022-09-09T07:11:23;5.10;;;4.10;;
10465;SDS011;5280;42.600;23.556;2022-09-09T07:13:52;5.23;;;4.53;;
10465;SDS011;5280;42.600;23.556;2022-09-09T07:16:21;4.03;;;3.73;;
10465;SDS011;5280;42.600;23.556;2022-09-09T07:18:51;7.93;;;3.77;;
10465;SDS011;5280;42.600;23.556;2022-09-09T07:21:19;5.50;;;4.00;;
10465;SDS011;5280;42.600;23.556;2022-09-09T07:23:47;5.50;;;4.00;;
10465;SDS011;5280;42.600;23.556;2022-09-09T07:26:14;7.53;;;4.07;;
10465;SDS011;5280;42.600;23.556;2022-09-09T07:28:44;8.00;;;3.93;;
10465;SDS011;5280;42.600;23.556;2022-09-09T07:31:12;4.77;;;3.67;;
10465;SDS011;5280;42.600;23.556;2022-09-09T07:33:41;4.50;;;3.90;;
10465;SDS011;5280;42.600;23.556;2022-09-09T07:36:12;4.27;;;3.87;;
10465;SDS011;5280;42.600;23.556;2022-09-09T07:38:40;3.87;;;3.57;;
10465;SDS011;5280;42.600;23.556;2022-09-09T07:41:11;4.70;;;4.00;;
10465;SDS011;5280;42.600;23.556;2022-09-09T07:43:40;4.47;;;3.57;;
10465;SDS011;5280;42.600;23.556;2022-09-09T07:46:11;3.97;;;3.70;;
10465;SDS011;5280;42.600;23.556;2022-09-09T07:48:43;4.77;;;3.83;;
10465;SDS011;5280;42.600;23.556;2022-09-09T07:51:14;5.60;;;3.80;;
10465;SDS011;5280;42.600;23.556;2022-09-09T07:53:43;4.40;;;4.00;;
10465;SDS011;5280;42.600;23.556;2022-09-09T07:56:11;4.70;;;3.80;;
10465;SDS011;5280;42.600;23.556;2022-09-09T07:58:42;4.53;;;4.13;;
10465;SDS011;5280;42.600;23.556;2022-09-09T08:01:12;5.68;;;3.55;;
10465;SDS011;5280;42.600;23.556;2022-09-09T08:03:41;6.32;;;3.85;;
10465;SDS011;5280;42.600;23.556;2022-09-09T08:06:08;6.82;;;4.18;;
10465;SDS011;5280;42.600;23.556;2022-09-09T08:08:36;4.20;;;3.80;;
10465;SDS011;5280;42.600;23.556;2022-09-09T08:11:04;7.82;;;3.65;;
10465;SDS011;5280;42.600;23.556;2022-09-09T08:13:34;5.30;;;3.58;;
10465;SDS011;5280;42.600;23.556;2022-09-09T08:16:05;4.75;;;3.90;;
10465;SDS011;5280;42.600;23.556;2022-09-09T08:18:33;4.10;;;3.58;;
10465;SDS011;5280;42.600;23.556;2022-09-09T08:21:07;4.22;;;3.83;;
10465;SDS011;5280;42.600;23.556;2022-09-09T08:23:38;3.78;;;3.47;;
10465;SDS011;5280;42.600;23.556;2022-09-09T08:26:07;3.70;;;3.40;;
10465;SDS011;5280;42.600;23.556;2022-09-09T08:28:37;4.03;;;3.63;;
10465;SDS011;5280;42.600;23.556;2022-09-09T08:31:05;6.90;;;4.13;;
10465;SDS011;5280;42.600;23.556;2022-09-09T08:33:33;4.45;;;3.70;;
10465;SDS011;5280;42.600;23.556;2022-09-09T08:36:01;4.75;;;3.90;;
10465;SDS011;5280;42.600;23.556;2022-09-09T08:38:28;3.85;;;3.53;;
10465;SDS011;5280;42.600;23.556;2022-09-09T08:40:58;4.72;;;3.92;;
10465;SDS011;5280;42.600;23.556;2022-09-09T08:43:46;4.88;;;3.90;;
10465;SDS011;5280;42.600;23.556;2022-09-09T08:46:17;4.63;;;3.70;;
10465;SDS011;5280;42.600;23.556;2022-09-09T08:48:52;4.40;;;4.00;;
10465;SDS011;5280;42.600;23.556;2022-09-09T08:51:25;4.50;;;3.85;;
10465;SDS011;5280;42.600;23.556;2022-09-09T08:53:56;4.57;;;4.07;;
10465;SDS011;5280;42.600;23.556;2022-09-09T08:56:27;3.80;;;3.50;;
10465;SDS011;5280;42.600;23.556;2022-09-09T08:58:59;3.95;;;3.65;;
10465;SDS011;5280;42.600;23.556;2022-09-09T09:04:29;4.00;;;3.70;;
10465;SDS011;5280;42.600;23.556;2022-09-09T09:07:07;7.72;;;5.65;;
10465;SDS011;5280;42.600;23.556;2022-09-09T09:09:44;7.07;;;4.25;;
10465;SDS011;5280;42.600;23.556;2022-09-09T09:12:21;4.60;;;3.78;;
10465;SDS011;5280;42.600;23.556;2022-09-09T09:14:51;6.78;;;4.00;;
10465;SDS011;5280;42.600;23.556;2022-09-09T09:17:21;4.63;;;4.05;;
10465;SDS011;5280;42.600;23.556;2022-09-09T09:19:51;5.30;;;4.20;;
10465;SDS011;5280;42.600;23.556;2022-09-09T09:22:18;4.43;;;4.07;;
10465;SDS011;5280;42.600;23.556;2022-09-09T09:24:50;5.55;;;3.85;;
10465;SDS011;5280;42.600;23.556;2022-09-09T09:27:25;6.70;;;5.20;;
10465;SDS011;5280;42.600;23.556;2022-09-09T09:29:57;15.35;;;9.18;;
10465;SDS011;5280;42.600;23.556;2022-09-09T09:32:28;10.50;;;7.05;;
10465;SDS011;5280;42.600;23.556;2022-09-09T09:34:59;4.32;;;3.92;;
10465;SDS011;5280;42.600;23.556;2022-09-09T09:37:34;5.22;;;3.55;;
10465;SDS011;5280;42.600;23.556;2022-09-09T09:40:08;4.50;;;4.10;;
10465;SDS011;5280;42.600;23.556;2022-09-09T09:42:37;4.05;;;3.67;;
10465;SDS011;5280;42.600;23.556;2022-09-09T09:45:08;4.63;;;4.10;;
10465;SDS011;5280;42.600;23.556;2022-09-09T09:47:44;5.43;;;3.97;;
10465;SDS011;5280;42.600;23.556;2022-09-09T09:50:18;6.38;;;5.32;;
10465;SDS011;5280;42.600;23.556;2022-09-09T09:52:53;5.93;;;4.28;;
10465;SDS011;5280;42.600;23.556;2022-09-09T09:55:22;5.40;;;4.90;;
10465;SDS011;5280;42.600;23.556;2022-09-09T09:57:52;10.07;;;7.65;;
10465;SDS011;5280;42.600;23.556;2022-09-09T10:00:20;5.60;;;4.40;;
10465;SDS011;5280;42.600;23.556;2022-09-09T10:02:48;4.15;;;3.83;;
10465;SDS011;5280;42.600;23.556;2022-09-09T10:05:18;4.30;;;4.03;;
10465;SDS011;5280;42.600;23.556;2022-09-09T10:07:46;6.05;;;4.05;;
10465;SDS011;5280;42.600;23.556;2022-09-09T10:10:28;5.55;;;4.22;;
10465;SDS011;5280;42.600;23.556;2022-09-09T10:13:09;5.85;;;3.63;;
10465;SDS011;5280;42.600;23.556;2022-09-09T10:15:46;5.20;;;3.72;;
10465;SDS011;5280;42.600;23.556;2022-09-09T10:18:25;5.55;;;4.53;;
10465;SDS011;5280;42.600;23.556;2022-09-09T10:21:11;4.00;;;3.70;;
10465;SDS011;5280;42.600;23.556;2022-09-09T10:23:52;8.48;;;4.75;;
10465;SDS011;5280;42.600;23.556;2022-09-09T10:26:39;12.80;;;4.68;;
10465;SDS011;5280;42.600;23.556;2022-09-09T10:29:32;6.80;;;4.40;;
10465;SDS011;5280;42.600;23.556;2022-09-09T10:32:17;5.15;;;4.68;;
10465;SDS011;5280;42.600;23.556;2022-09-09T10:35:02;5.85;;;4.07;;
10465;SDS011;5280;42.600;23.556;2022-09-09T10:37:41;4.70;;;4.10;;
10465;SDS011;5280;42.600;23.556;2022-09-09T10:40:19;4.47;;;4.07;;
10465;SDS011;5280;42.600;23.556;2022-09-09T10:42:56;4.95;;;4.47;;
10465;SDS011;5280;42.600;23.556;2022-09-09T10:45:34;4.80;;;4.10;;
10465;SDS011;5280;42.600;23.556;2022-09-09T10:48:11;4.88;;;4.47;;
10465;SDS011;5280;42.600;23.556;2022-09-09T10:50:52;7.85;;;4.28;;
10465;SDS011;5280;42.600;23.556;2022-09-09T10:53:26;4.28;;;3.88;;
10465;SDS011;5280;42.600;23.556;2022-09-09T10:56:06;4.25;;;3.95;;
10465;SDS011;5280;42.600;23.556;2022-09-09T10:58:36;6.40;;;4.35;;
10465;SDS011;5280;42.600;23.556;2022-09-09T11:01:12;4.38;;;3.97;;
10465;SDS011;5280;42.600;23.556;2022-09-09T11:03:45;5.35;;;4.45;;
10465;SDS011;5280;42.600;23.556;2022-09-09T11:06:21;4.90;;;4.50;;
10465;SDS011;5280;42.600;23.556;2022-09-09T11:08:55;5.07;;;4.40;;
10465;SDS011;5280;42.600;23.556;2022-09-09T11:11:27;5.93;;;4.47;;
10465;SDS011;5280;42.600;23.556;2022-09-09T11:13:59;6.15;;;4.85;;
10465;SDS011;5280;42.600;23.556;2022-09-09T11:16:38;8.13;;;4.28;;
10465;SDS011;5280;42.600;23.556;2022-09-09T11:19:11;4.88;;;4.47;;
10465;SDS011;5280;42.600;23.556;2022-09-09T11:21:44;5.78;;;4.47;;
10465;SDS011;5280;42.600;23.556;2022-09-09T11:24:14;7.28;;;4.88;;
10465;SDS011;5280;42.600;23.556;2022-09-09T11:26:49;6.03;;;4.60;;
10465;SDS011;5280;42.600;23.556;2022-09-09T11:29:38;4.63;;;4.32;;
10465;SDS011;5280;42.600;23.556;2022-09-09T11:32:26;6.65;;;4.93;;
10465;SDS011;5280;42.600;23.556;2022-09-09T11:35:07;8.27;;;4.78;;
10465;SDS011;5280;42.600;23.556;2022-09-09T11:37:51;5.10;;;4.65;;
10465;SDS011;5280;42.600;23.556;2022-09-09T11:40:28;6.03;;;4.68;;
10465;SDS011;5280;42.600;23.556;2022-09-09T11:43:04;6.10;;;4.82;;
10465;SDS011;5280;42.600;23.556;2022-09-09T11:45:38;11.02;;;4.45;;
10465;SDS011;5280;42.600;23.556;2022-09-09T11:48:21;9.00;;;5.05;;
10465;SDS011;5280;42.600;23.556;2022-09-09T11:50:57;6.03;;;4.53;;
10465;SDS011;5280;42.600;23.556;2022-09-09T11:53:25;5.30;;;4.80;;
10465;SDS011;5280;42.600;23.556;2022-09-09T11:56:11;9.38;;;5.03;;
10465;SDS011;5280;42.600;23.556;2022-09-09T11:58:43;17.90;;;5.95;;
10465;SDS011;5280;42.600;23.556;2022-09-09T12:01:28;11.02;;;5.00;;
10465;SDS011;5280;42.600;23.556;2022-09-09T12:04:21;6.97;;;4.90;;
10465;SDS011;5280;42.600;23.556;2022-09-09T12:06:56;8.60;;;5.00;;
10465;SDS011;5280;42.600;23.556;2022-09-09T12:09:27;5.32;;;4.40;;
10465;SDS011;5280;42.600;23.556;2022-09-09T12:12:07;7.85;;;5.10;;
10465;SDS011;5280;42.600;23.556;2022-09-09T12:14:58;11.18;;;5.20;;
10465;SDS011;5280;42.600;23.556;2022-09-09T12:17:46;8.27;;;4.78;;
10465;SDS011;5280;42.600;23.556;2022-09-09T12:20:18;9.07;;;5.22;;
10465;SDS011;5280;42.600;23.556;2022-09-09T12:22:50;7.85;;;5.28;;
10465;SDS011;5280;42.600;23.556;2022-09-09T12:25:45;10.55;;;5.57;;
10465;SDS011;5280;42.600;23.556;2022-09-09T12:28:25;10.35;;;5.03;;
10465;SDS011;5280;42.600;23.556;2022-09-09T12:31:05;10.60;;;6.97;;
10465;SDS011;5280;42.600;23.556;2022-09-09T12:33:43;12.52;;;8.63;;
10465;SDS011;5280;42.600;23.556;2022-09-09T12:36:15;9.88;;;8.25;;
10465;SDS011;5280;42.600;23.556;2022-09-09T12:38:45;9.10;;;5.40;;
10465;SDS011;5280;42.600;23.556;2022-09-09T12:41:19;7.60;;;5.22;;
10465;SDS011;5280;42.600;23.556;2022-09-09T12:43:47;9.05;;;5.50;;
10465;SDS011;5280;42.600;23.556;2022-09-09T12:46:17;6.07;;;5.25;;
10465;SDS011;5280;42.600;23.556;2022-09-09T12:48:56;6.72;;;5.13;;
10465;SDS011;5280;42.600;23.556;2022-09-09T12:51:26;5.68;;;4.93;;
10465;SDS011;5280;42.600;23.556;2022-09-09T12:53:56;6.93;;;4.93;;
10465;SDS011;5280;42.600;23.556;2022-09-09T12:56:25;7.35;;;4.75;;
10465;SDS011;5280;42.600;23.556;2022-09-09T12:58:55;5.45;;;4.50;;
10465;SDS011;5280;42.600;23.556;2022-09-09T13:01:24;20.50;;;5.72;;
10465;SDS011;5280;42.600;23.556;2022-09-09T13:03:52;14.50;;;6.05;;
10465;SDS011;5280;42.600;23.556;2022-09-09T13:06:20;7.65;;;4.22;;
10465;SDS011;5280;42.600;23.556;2022-09-09T13:08:51;6.15;;;5.22;;
10465;SDS011;5280;42.600;23.556;2022-09-09T13:11:20;8.45;;;5.00;;
10465;SDS011;5280;42.600;23.556;2022-09-09T13:13:51;11.80;;;4.70;;
10465;SDS011;5280;42.600;23.556;2022-09-09T13:16:20;6.72;;;6.05;;
10465;SDS011;5280;42.600;23.556;2022-09-09T13:18:51;6.43;;;4.85;;
10465;SDS011;5280;42.600;23.556;2022-09-09T13:21:19;22.50;;;5.47;;
10465;SDS011;5280;42.600;23.556;2022-09-09T13:23:58;13.35;;;5.35;;
10465;SDS011;5280;42.600;23.556;2022-09-09T13:26:28;16.65;;;5.45;;
10465;SDS011;5280;42.600;23.556;2022-09-09T13:28:55;9.57;;;5.30;;
10465;SDS011;5280;42.600;23.556;2022-09-09T13:31:36;7.60;;;5.38;;
10465;SDS011;5280;42.600;23.556;2022-09-09T13:34:10;5.53;;;4.88;;
10465;SDS011;5280;42.600;23.556;2022-09-09T13:36:38;8.48;;;5.22;;
10465;SDS011;5280;42.600;23.556;2022-09-09T13:39:15;7.00;;;4.60;;
10465;SDS011;5280;42.600;23.556;2022-09-09T13:41:46;9.77;;;4.78;;
10465;SDS011;5280;42.600;23.556;2022-09-09T13:44:17;5.30;;;4.28;;
10465;SDS011;5280;42.600;23.556;2022-09-09T13:46:58;7.13;;;4.65;;
10465;SDS011;5280;42.600;23.556;2022-09-09T13:49:30;7.30;;;4.95;;
10465;SDS011;5280;42.600;23.556;2022-09-09T13:52:05;5.30;;;4.70;;
10465;SDS011;5280;42.600;23.556;2022-09-09T13:54:38;5.88;;;4.82;;
10465;SDS011;5280;42.600;23.556;2022-09-09T13:57:05;5.43;;;4.80;;
10465;SDS011;5280;42.600;23.556;2022-09-09T13:59:42;5.38;;;4.53;;
10465;SDS011;5280;42.600;23.556;2022-09-09T14:02:09;7.88;;;4.15;;
10465;SDS011;5280;42.600;23.556;2022-09-09T14:04:36;9.30;;;4.85;;
10465;SDS011;5280;42.600;23.556;2022-09-09T14:07:03;6.95;;;4.60;;
10465;SDS011;5280;42.600;23.556;2022-09-09T14:09:29;5.90;;;4.47;;
10465;SDS011;5280;42.600;23.556;2022-09-09T14:11:58;5.15;;;4.75;;
10465;SDS011;5280;42.600;23.556;2022-09-09T14:14:25;13.75;;;5.75;;
10465;SDS011;5280;42.600;23.556;2022-09-09T14:16:51;5.53;;;5.03;;
10465;SDS011;5280;42.600;23.556;2022-09-09T14:19:18;7.18;;;5.45;;
10465;SDS011;5280;42.600;23.556;2022-09-09T14:21:45;12.80;;;5.57;;
10465;SDS011;5280;42.600;23.556;2022-09-09T14:24:12;40.95;;;8.02;;
10465;SDS011;5280;42.600;23.556;2022-09-09T14:26:39;7.60;;;5.13;;
10465;SDS011;5280;42.600;23.556;2022-09-09T14:29:07;5.68;;;5.28;;
10465;SDS011;5280;42.600;23.556;2022-09-09T14:31:34;9.63;;;5.60;;
10465;SDS011;5280;42.600;23.556;2022-09-09T14:34:01;6.90;;;5.50;;
10465;SDS011;5280;42.600;23.556;2022-09-09T14:36:27;6.50;;;5.10;;
10465;SDS011;5280;42.600;23.556;2022-09-09T14:38:55;6.50;;;5.50;;
10465;SDS011;5280;42.600;23.556;2022-09-09T14:41:22;12.75;;;5.85;;
10465;SDS011;5280;42.600;23.556;2022-09-09T14:43:50;13.90;;;6.97;;
10465;SDS011;5280;42.600;23.556;2022-09-09T14:46:20;9.07;;;6.30;;
10465;SDS011;5280;42.600;23.556;2022-09-09T14:48:47;9.45;;;5.20;;
10465;SDS011;5280;42.600;23.556;2022-09-09T14:51:15;6.30;;;5.70;;
10465;SDS011;5280;42.600;23.556;2022-09-09T14:53:46;6.55;;;5.50;;
10465;SDS011;5280;42.600;23.556;2022-09-09T14:56:14;9.52;;;5.93;;
10465;SDS011;5280;42.600;23.556;2022-09-09T14:58:42;6.35;;;5.70;;
10465;SDS011;5280;42.600;23.556;2022-09-09T15:01:13;10.40;;;5.60;;
10465;SDS011;5280;42.600;23.556;2022-09-09T15:03:42;6.05;;;5.53;;
10465;SDS011;5280;42.600;23.556;2022-09-09T15:06:15;6.93;;;5.80;;
10465;SDS011;5280;42.600;23.556;2022-09-09T15:08:43;7.57;;;5.43;;
10465;SDS011;5280;42.600;23.556;2022-09-09T15:11:12;21.73;;;6.70;;
10465;SDS011;5280;42.600;23.556;2022-09-09T15:13:40;8.30;;;5.85;;
10465;SDS011;5280;42.600;23.556;2022-09-09T15:16:09;24.10;;;7.00;;
10465;SDS011;5280;42.600;23.556;2022-09-09T15:18:37;9.85;;;6.00;;